sensor_id;sensor_type;location;lat;lon;timestamp;temperature;humidity
5459;DHT22;2752;49.992;8.422;2023-01-29T00:02:25;1.10;1.00
5459;DHT22;2752;49.992;8.422;2023-01-29T00:04:52;1.40;1.00
5459;DHT22;2752;49.992;8.422;2023-01-29T00:07:18;1.20;1.00
5459;DHT22;2752;49.992;8.422;2023-01-29T00:09:45;1.10;1.00
5459;DHT22;2752;49.992;8.422;2023-01-29T00:12:12;1.10;1.00
5459;DHT22;2752;49.992;8.422;2023-01-29T00:14:39;1.10;1.00
5459;DHT22;2752;49.992;8.422;2023-01-29T00:17:05;1.10;1.00
5459;DHT22;2752;49.992;8.422;2023-01-29T00:19:34;1.00;1.00
5459;DHT22;2752;49.992;8.422;2023-01-29T00:22:01;1.00;1.00
5459;DHT22;2752;49.992;8.422;2023-01-29T00:24:28;1.00;1.00
5459;DHT22;2752;49.992;8.422;2023-01-29T00:26:54;0.80;1.00
5459;DHT22;2752;49.992;8.422;2023-01-29T00:29:21;1.10;1.00
5459;DHT22;2752;49.992;8.422;2023-01-29T00:31:47;1.10;1.00
5459;DHT22;2752;49.992;8.422;2023-01-29T00:34:14;1.20;1.00
5459;DHT22;2752;49.992;8.422;2023-01-29T00:36:42;1.10;1.00
5459;DHT22;2752;49.992;8.422;2023-01-29T00:39:09;1.10;1.00
5459;DHT22;2752;49.992;8.422;2023-01-29T00:41:37;1.10;1.00
5459;DHT22;2752;49.992;8.422;2023-01-29T00:44:21;1.00;1.00
5459;DHT22;2752;49.992;8.422;2023-01-29T00:47:05;1.00;1.00
5459;DHT22;2752;49.992;8.422;2023-01-29T00:49:52;1.00;1.00
5459;DHT22;2752;49.992;8.422;2023-01-29T00:52:20;1.00;1.00
5459;DHT22;2752;49.992;8.422;2023-01-29T00:54:50;1.00;1.00
5459;DHT22;2752;49.992;8.422;2023-01-29T00:57:17;1.00;1.00
5459;DHT22;2752;49.992;8.422;2023-01-29T00:59:43;0.90;1.00
5459;DHT22;2752;49.992;8.422;2023-01-29T01:02:10;0.90;1.00
5459;DHT22;2752;49.992;8.422;2023-01-29T01:04:54;0.80;1.00
5459;DHT22;2752;49.992;8.422;2023-01-29T01:07:22;0.90;1.00
5459;DHT22;2752;49.992;8.422;2023-01-29T01:09:49;0.90;1.00
5459;DHT22;2752;49.992;8.422;2023-01-29T01:12:33;0.80;1.00
5459;DHT22;2752;49.992;8.422;2023-01-29T01:14:59;0.80;1.00
5459;DHT22;2752;49.992;8.422;2023-01-29T01:17:26;0.80;1.00
5459;DHT22;2752;49.992;8.422;2023-01-29T01:19:53;0.90;1.00
5459;DHT22;2752;49.992;8.422;2023-01-29T01:22:19;0.90;1.00
5459;DHT22;2752;49.992;8.422;2023-01-29T01:24:47;0.90;1.00
5459;DHT22;2752;49.992;8.422;2023-01-29T01:27:14;1.00;1.00
5459;DHT22;2752;49.992;8.422;2023-01-29T01:29:43;1.10;1.00
5459;DHT22;2752;49.992;8.422;2023-01-29T01:32:10;1.20;1.00
5459;DHT22;2752;49.992;8.422;2023-01-29T01:34:37;1.10;1.00
5459;DHT22;2752;49.992;8.422;2023-01-29T01:37:04;1.10;1.00
5459;DHT22;2752;49.992;8.422;2023-01-29T01:39:30;0.90;1.00
5459;DHT22;2752;49.992;8.422;2023-01-29T01:41:58;0.80;1.00
5459;DHT22;2752;49.992;8.422;2023-01-29T01:44:48;0.80;1.00
5459;DHT22;2752;49.992;8.422;2023-01-29T01:47:16;0.70;1.00
5459;DHT22;2752;49.992;8.422;2023-01-29T01:49:44;0.80;1.00
5459;DHT22;2752;49.992;8.422;2023-01-29T01:52:12;0.80;1.00
5459;DHT22;2752;49.992;8.422;2023-01-29T01:54:42;0.80;1.00
5459;DHT22;2752;49.992;8.422;2023-01-29T01:57:14;0.80;1.00
5459;DHT22;2752;49.992;8.422;2023-01-29T01:59:42;0.80;1.00
5459;DHT22;2752;49.992;8.422;2023-01-29T02:02:12;0.80;1.00
5459;DHT22;2752;49.992;8.422;2023-01-29T02:04:57;0.80;1.00
5459;DHT22;2752;49.992;8.422;2023-01-29T02:07:42;0.80;1.00
5459;DHT22;2752;49.992;8.422;2023-01-29T02:10:30;0.80;1.00
5459;DHT22;2752;49.992;8.422;2023-01-29T02:13:03;0.80;1.00
5459;DHT22;2752;49.992;8.422;2023-01-29T02:15:30;0.90;1.00
5459;DHT22;2752;49.992;8.422;2023-01-29T02:17:57;0.80;1.00
5459;DHT22;2752;49.992;8.422;2023-01-29T02:20:26;0.80;1.00
5459;DHT22;2752;49.992;8.422;2023-01-29T02:23:08;0.70;1.00
5459;DHT22;2752;49.992;8.422;2023-01-29T02:26:14;0.60;1.00
5459;DHT22;2752;49.992;8.422;2023-01-29T02:28:47;0.60;1.00
5459;DHT22;2752;49.992;8.422;2023-01-29T02:31:23;0.60;1.00
5459;DHT22;2752;49.992;8.422;2023-01-29T02:34:00;0.50;1.00
5459;DHT22;2752;49.992;8.422;2023-01-29T02:36:36;0.50;1.00
5459;DHT22;2752;49.992;8.422;2023-01-29T02:39:12;0.50;1.00
5459;DHT22;2752;49.992;8.422;2023-01-29T02:41:43;0.40;1.00
5459;DHT22;2752;49.992;8.422;2023-01-29T02:44:18;0.40;1.00
5459;DHT22;2752;49.992;8.422;2023-01-29T02:46:52;0.40;1.00
5459;DHT22;2752;49.992;8.422;2023-01-29T02:49:23;0.40;1.00
5459;DHT22;2752;49.992;8.422;2023-01-29T02:51:58;0.40;1.00
5459;DHT22;2752;49.992;8.422;2023-01-29T02:54:30;0.40;1.00
5459;DHT22;2752;49.992;8.422;2023-01-29T02:57:02;0.40;1.00
5459;DHT22;2752;49.992;8.422;2023-01-29T02:59:34;0.60;1.00
5459;DHT22;2752;49.992;8.422;2023-01-29T03:02:08;0.40;1.00
5459;DHT22;2752;49.992;8.422;2023-01-29T03:04:41;0.40;1.00
5459;DHT22;2752;49.992;8.422;2023-01-29T03:07:15;0.50;1.00
5459;DHT22;2752;49.992;8.422;2023-01-29T03:10:04;0.40;1.00
5459;DHT22;2752;49.992;8.422;2023-01-29T03:12:38;0.40;1.00
5459;DHT22;2752;49.992;8.422;2023-01-29T03:15:10;0.40;1.00
5459;DHT22;2752;49.992;8.422;2023-01-29T03:17:44;0.40;1.00
5459;DHT22;2752;49.992;8.422;2023-01-29T03:20:16;0.40;1.00
5459;DHT22;2752;49.992;8.422;2023-01-29T03:22:45;0.40;1.00
5459;DHT22;2752;49.992;8.422;2023-01-29T03:25:16;0.40;1.00
5459;DHT22;2752;49.992;8.422;2023-01-29T03:28:03;0.40;1.00
5459;DHT22;2752;49.992;8.422;2023-01-29T03:30:53;0.40;1.00
5459;DHT22;2752;49.992;8.422;2023-01-29T03:33:43;0.50;1.00
5459;DHT22;2752;49.992;8.422;2023-01-29T03:36:15;0.50;1.00
5459;DHT22;2752;49.992;8.422;2023-01-29T03:38:43;0.50;1.00
5459;DHT22;2752;49.992;8.422;2023-01-29T03:41:15;0.50;1.00
5459;DHT22;2752;49.992;8.422;2023-01-29T03:43:51;0.50;1.00
5459;DHT22;2752;49.992;8.422;2023-01-29T03:46:24;0.50;1.00
5459;DHT22;2752;49.992;8.422;2023-01-29T03:48:57;0.50;1.00
5459;DHT22;2752;49.992;8.422;2023-01-29T03:51:29;0.60;1.00
5459;DHT22;2752;49.992;8.422;2023-01-29T03:54:04;0.60;1.00
5459;DHT22;2752;49.992;8.422;2023-01-29T03:56:40;0.60;1.00
5459;DHT22;2752;49.992;8.422;2023-01-29T03:59:18;0.60;1.00
5459;DHT22;2752;49.992;8.422;2023-01-29T04:01:50;0.60;1.00
5459;DHT22;2752;49.992;8.422;2023-01-29T04:04:21;0.80;1.00
5459;DHT22;2752;49.992;8.422;2023-01-29T04:06:50;0.70;1.00
5459;DHT22;2752;49.992;8.422;2023-01-29T04:09:21;0.60;1.00
5459;DHT22;2752;49.992;8.422;2023-01-29T04:11:53;0.50;1.00
5459;DHT22;2752;49.992;8.422;2023-01-29T04:14:22;0.40;1.00
5459;DHT22;2752;49.992;8.422;2023-01-29T04:16:54;0.40;1.00
5459;DHT22;2752;49.992;8.422;2023-01-29T04:19:21;0.30;1.00
5459;DHT22;2752;49.992;8.422;2023-01-29T04:21:49;0.60;1.00
5459;DHT22;2752;49.992;8.422;2023-01-29T04:24:18;0.30;1.00
5459;DHT22;2752;49.992;8.422;2023-01-29T04:26:57;0.40;1.00
5459;DHT22;2752;49.992;8.422;2023-01-29T04:29:39;0.30;1.00
5459;DHT22;2752;49.992;8.422;2023-01-29T04:32:14;0.30;1.00
5459;DHT22;2752;49.992;8.422;2023-01-29T04:34:50;0.20;1.00
5459;DHT22;2752;49.992;8.422;2023-01-29T04:37:22;0.10;1.00
5459;DHT22;2752;49.992;8.422;2023-01-29T04:39:59;0.00;1.00
5459;DHT22;2752;49.992;8.422;2023-01-29T04:42:32;0.00;1.00
5459;DHT22;2752;49.992;8.422;2023-01-29T04:45:06;-0.10;1.00
5459;DHT22;2752;49.992;8.422;2023-01-29T04:47:46;0.00;1.00
5459;DHT22;2752;49.992;8.422;2023-01-29T04:50:19;0.00;1.00
5459;DHT22;2752;49.992;8.422;2023-01-29T04:52:52;-0.10;1.00
5459;DHT22;2752;49.992;8.422;2023-01-29T04:55:24;-0.10;1.00
5459;DHT22;2752;49.992;8.422;2023-01-29T04:58:02;-0.20;1.00
5459;DHT22;2752;49.992;8.422;2023-01-29T05:00:33;-0.20;1.00
5459;DHT22;2752;49.992;8.422;2023-01-29T05:03:02;-0.20;1.00
5459;DHT22;2752;49.992;8.422;2023-01-29T05:05:30;-0.20;1.00
5459;DHT22;2752;49.992;8.422;2023-01-29T05:07:58;-0.20;1.00
5459;DHT22;2752;49.992;8.422;2023-01-29T05:10:25;-0.20;1.00
5459;DHT22;2752;49.992;8.422;2023-01-29T05:12:57;-0.20;1.00
5459;DHT22;2752;49.992;8.422;2023-01-29T05:15:29;-0.20;1.00
5459;DHT22;2752;49.992;8.422;2023-01-29T05:17:57;-0.10;1.00
5459;DHT22;2752;49.992;8.422;2023-01-29T05:20:30;-0.10;1.00
5459;DHT22;2752;49.992;8.422;2023-01-29T05:22:57;0.00;1.00
5459;DHT22;2752;49.992;8.422;2023-01-29T05:25:25;0.00;1.00
5459;DHT22;2752;49.992;8.422;2023-01-29T05:27:53;0.10;1.00
5459;DHT22;2752;49.992;8.422;2023-01-29T05:30:33;0.10;1.00
5459;DHT22;2752;49.992;8.422;2023-01-29T05:33:00;0.10;1.00
5459;DHT22;2752;49.992;8.422;2023-01-29T05:35:28;0.10;1.00
5459;DHT22;2752;49.992;8.422;2023-01-29T05:37:55;0.20;1.00
5459;DHT22;2752;49.992;8.422;2023-01-29T05:40:22;0.20;1.00
5459;DHT22;2752;49.992;8.422;2023-01-29T05:42:49;0.10;1.00
5459;DHT22;2752;49.992;8.422;2023-01-29T05:45:16;0.30;1.00
5459;DHT22;2752;49.992;8.422;2023-01-29T05:47:43;0.50;1.00
5459;DHT22;2752;49.992;8.422;2023-01-29T05:50:11;0.60;1.00
5459;DHT22;2752;49.992;8.422;2023-01-29T05:52:39;0.40;1.00
5459;DHT22;2752;49.992;8.422;2023-01-29T05:55:07;0.30;1.00
5459;DHT22;2752;49.992;8.422;2023-01-29T05:57:34;0.20;1.00
5459;DHT22;2752;49.992;8.422;2023-01-29T06:00:02;0.10;1.00
5459;DHT22;2752;49.992;8.422;2023-01-29T06:02:29;0.00;1.00
5459;DHT22;2752;49.992;8.422;2023-01-29T06:04:55;0.00;1.00
5459;DHT22;2752;49.992;8.422;2023-01-29T06:07:22;-0.10;1.00
5459;DHT22;2752;49.992;8.422;2023-01-29T06:09:50;0.10;1.00
5459;DHT22;2752;49.992;8.422;2023-01-29T06:12:17;0.10;1.00
5459;DHT22;2752;49.992;8.422;2023-01-29T06:14:43;0.20;1.00
5459;DHT22;2752;49.992;8.422;2023-01-29T06:17:10;0.40;1.00
5459;DHT22;2752;49.992;8.422;2023-01-29T06:19:36;0.40;1.00
5459;DHT22;2752;49.992;8.422;2023-01-29T06:22:03;0.30;1.00
5459;DHT22;2752;49.992;8.422;2023-01-29T06:24:30;0.20;1.00
5459;DHT22;2752;49.992;8.422;2023-01-29T06:26:58;0.20;1.00
5459;DHT22;2752;49.992;8.422;2023-01-29T06:29:25;0.10;1.00
5459;DHT22;2752;49.992;8.422;2023-01-29T06:31:51;0.00;1.00
5459;DHT22;2752;49.992;8.422;2023-01-29T06:34:18;0.10;1.00
5459;DHT22;2752;49.992;8.422;2023-01-29T06:36:44;0.10;1.00
5459;DHT22;2752;49.992;8.422;2023-01-29T06:39:11;0.10;1.00
5459;DHT22;2752;49.992;8.422;2023-01-29T06:41:38;0.10;1.00
5459;DHT22;2752;49.992;8.422;2023-01-29T06:44:06;0.10;1.00
5459;DHT22;2752;49.992;8.422;2023-01-29T06:46:32;0.10;1.00
5459;DHT22;2752;49.992;8.422;2023-01-29T06:48:59;0.00;1.00
5459;DHT22;2752;49.992;8.422;2023-01-29T06:51:26;0.10;1.00
5459;DHT22;2752;49.992;8.422;2023-01-29T06:53:52;0.40;1.00
5459;DHT22;2752;49.992;8.422;2023-01-29T06:56:20;0.50;1.00
5459;DHT22;2752;49.992;8.422;2023-01-29T06:58:47;0.60;1.00
5459;DHT22;2752;49.992;8.422;2023-01-29T07:01:15;0.60;1.00
5459;DHT22;2752;49.992;8.422;2023-01-29T07:03:42;0.60;1.00
5459;DHT22;2752;49.992;8.422;2023-01-29T07:06:09;0.50;1.00
5459;DHT22;2752;49.992;8.422;2023-01-29T07:08:36;0.40;1.00
5459;DHT22;2752;49.992;8.422;2023-01-29T07:11:03;0.30;1.00
5459;DHT22;2752;49.992;8.422;2023-01-29T07:13:30;0.20;1.00
5459;DHT22;2752;49.992;8.422;2023-01-29T07:15:58;0.20;1.00
5459;DHT22;2752;49.992;8.422;2023-01-29T07:18:27;0.40;1.00
5459;DHT22;2752;49.992;8.422;2023-01-29T07:20:54;0.40;1.00
5459;DHT22;2752;49.992;8.422;2023-01-29T07:23:22;0.40;1.00
5459;DHT22;2752;49.992;8.422;2023-01-29T07:25:49;0.40;1.00
5459;DHT22;2752;49.992;8.422;2023-01-29T07:28:16;0.40;1.00
5459;DHT22;2752;49.992;8.422;2023-01-29T07:30:43;0.40;1.00
5459;DHT22;2752;49.992;8.422;2023-01-29T07:33:10;0.20;1.00
5459;DHT22;2752;49.992;8.422;2023-01-29T07:35:39;0.20;1.00
5459;DHT22;2752;49.992;8.422;2023-01-29T07:38:07;0.10;1.00
5459;DHT22;2752;49.992;8.422;2023-01-29T07:40:34;0.10;1.00
5459;DHT22;2752;49.992;8.422;2023-01-29T07:43:02;0.10;1.00
5459;DHT22;2752;49.992;8.422;2023-01-29T07:45:29;0.00;1.00
5459;DHT22;2752;49.992;8.422;2023-01-29T07:47:56;0.00;1.00
5459;DHT22;2752;49.992;8.422;2023-01-29T07:50:23;0.00;1.00
5459;DHT22;2752;49.992;8.422;2023-01-29T07:52:53;0.00;1.00
5459;DHT22;2752;49.992;8.422;2023-01-29T07:55:19;0.30;1.00
5459;DHT22;2752;49.992;8.422;2023-01-29T07:57:46;0.30;1.00
5459;DHT22;2752;49.992;8.422;2023-01-29T08:00:14;0.50;1.00
5459;DHT22;2752;49.992;8.422;2023-01-29T08:02:40;0.50;1.00
5459;DHT22;2752;49.992;8.422;2023-01-29T08:05:08;0.50;1.00
5459;DHT22;2752;49.992;8.422;2023-01-29T08:07:34;0.50;1.00
5459;DHT22;2752;49.992;8.422;2023-01-29T08:10:03;0.60;1.00
5459;DHT22;2752;49.992;8.422;2023-01-29T08:12:29;0.60;1.00
5459;DHT22;2752;49.992;8.422;2023-01-29T08:14:56;0.60;1.00
5459;DHT22;2752;49.992;8.422;2023-01-29T08:17:23;0.60;1.00
5459;DHT22;2752;49.992;8.422;2023-01-29T08:19:49;0.50;1.00
5459;DHT22;2752;49.992;8.422;2023-01-29T08:22:16;0.70;1.00
5459;DHT22;2752;49.992;8.422;2023-01-29T08:24:43;0.60;1.00
5459;DHT22;2752;49.992;8.422;2023-01-29T08:27:11;0.60;1.00
5459;DHT22;2752;49.992;8.422;2023-01-29T08:29:37;0.60;1.00
5459;DHT22;2752;49.992;8.422;2023-01-29T08:32:04;0.70;1.00
5459;DHT22;2752;49.992;8.422;2023-01-29T08:34:31;1.10;1.00
5459;DHT22;2752;49.992;8.422;2023-01-29T08:36:57;1.10;1.00
5459;DHT22;2752;49.992;8.422;2023-01-29T08:39:24;1.10;1.00
5459;DHT22;2752;49.992;8.422;2023-01-29T08:41:51;1.10;1.00
5459;DHT22;2752;49.992;8.422;2023-01-29T08:44:19;1.30;1.00
5459;DHT22;2752;49.992;8.422;2023-01-29T08:46:45;1.40;1.00
5459;DHT22;2752;49.992;8.422;2023-01-29T08:49:12;1.30;1.00
5459;DHT22;2752;49.992;8.422;2023-01-29T08:51:39;1.20;1.00
5459;DHT22;2752;49.992;8.422;2023-01-29T08:54:05;1.30;1.00
5459;DHT22;2752;49.992;8.422;2023-01-29T08:56:32;1.10;1.00
5459;DHT22;2752;49.992;8.422;2023-01-29T08:58:58;1.40;1.00
5459;DHT22;2752;49.992;8.422;2023-01-29T09:01:26;1.50;1.00
5459;DHT22;2752;49.992;8.422;2023-01-29T09:03:53;1.50;1.00
5459;DHT22;2752;49.992;8.422;2023-01-29T09:06:20;1.40;1.00
5459;DHT22;2752;49.992;8.422;2023-01-29T09:08:46;1.30;1.00
5459;DHT22;2752;49.992;8.422;2023-01-29T09:11:14;1.40;1.00
5459;DHT22;2752;49.992;8.422;2023-01-29T09:13:40;1.40;1.00
5459;DHT22;2752;49.992;8.422;2023-01-29T09:16:08;1.30;1.00
5459;DHT22;2752;49.992;8.422;2023-01-29T09:18:36;1.30;1.00
5459;DHT22;2752;49.992;8.422;2023-01-29T09:21:03;1.20;1.00
5459;DHT22;2752;49.992;8.422;2023-01-29T09:23:30;1.10;1.00
5459;DHT22;2752;49.992;8.422;2023-01-29T09:25:57;1.20;1.00
5459;DHT22;2752;49.992;8.422;2023-01-29T09:28:24;1.00;1.00
5459;DHT22;2752;49.992;8.422;2023-01-29T09:30:51;1.10;1.00
5459;DHT22;2752;49.992;8.422;2023-01-29T09:33:17;1.10;1.00
5459;DHT22;2752;49.992;8.422;2023-01-29T09:35:45;1.10;1.00
5459;DHT22;2752;49.992;8.422;2023-01-29T09:38:13;1.00;1.00
5459;DHT22;2752;49.992;8.422;2023-01-29T09:40:45;0.90;1.00
5459;DHT22;2752;49.992;8.422;2023-01-29T09:43:15;1.10;1.00
5459;DHT22;2752;49.992;8.422;2023-01-29T09:45:51;1.20;1.00
5459;DHT22;2752;49.992;8.422;2023-01-29T09:48:19;1.20;1.00
5459;DHT22;2752;49.992;8.422;2023-01-29T09:50:50;1.00;1.00
5459;DHT22;2752;49.992;8.422;2023-01-29T09:53:24;0.90;1.00
5459;DHT22;2752;49.992;8.422;2023-01-29T09:55:57;0.90;1.00
5459;DHT22;2752;49.992;8.422;2023-01-29T09:58:27;1.00;1.00
5459;DHT22;2752;49.992;8.422;2023-01-29T10:00:59;1.00;1.00
5459;DHT22;2752;49.992;8.422;2023-01-29T10:06:32;1.10;1.00
5459;DHT22;2752;49.992;8.422;2023-01-29T10:09:17;1.10;1.00
5459;DHT22;2752;49.992;8.422;2023-01-29T10:11:54;1.10;1.00
5459;DHT22;2752;49.992;8.422;2023-01-29T10:14:29;1.10;1.00
5459;DHT22;2752;49.992;8.422;2023-01-29T10:17:08;1.10;1.00
5459;DHT22;2752;49.992;8.422;2023-01-29T10:20:00;1.20;1.00
5459;DHT22;2752;49.992;8.422;2023-01-29T10:22:52;1.20;1.00
5459;DHT22;2752;49.992;8.422;2023-01-29T10:25:23;1.30;1.00
5459;DHT22;2752;49.992;8.422;2023-01-29T10:27:53;1.40;1.00
5459;DHT22;2752;49.992;8.422;2023-01-29T10:30:27;1.30;1.00
5459;DHT22;2752;49.992;8.422;2023-01-29T10:32:58;1.50;1.00
5459;DHT22;2752;49.992;8.422;2023-01-29T10:35:30;1.50;1.00
5459;DHT22;2752;49.992;8.422;2023-01-29T10:38:19;1.50;1.00
5459;DHT22;2752;49.992;8.422;2023-01-29T10:40:51;1.50;1.00
5459;DHT22;2752;49.992;8.422;2023-01-29T10:43:21;1.60;1.00
5459;DHT22;2752;49.992;8.422;2023-01-29T10:45:53;1.50;1.00
5459;DHT22;2752;49.992;8.422;2023-01-29T10:48:43;1.60;1.00
5459;DHT22;2752;49.992;8.422;2023-01-29T10:51:27;1.70;1.00
5459;DHT22;2752;49.992;8.422;2023-01-29T10:54:09;1.80;1.00
5459;DHT22;2752;49.992;8.422;2023-01-29T10:56:49;2.00;1.00
5459;DHT22;2752;49.992;8.422;2023-01-29T10:59:44;2.10;1.00
5459;DHT22;2752;49.992;8.422;2023-01-29T11:02:15;2.10;1.00
5459;DHT22;2752;49.992;8.422;2023-01-29T11:04:43;2.20;1.00
5459;DHT22;2752;49.992;8.422;2023-01-29T11:07:11;2.40;1.00
5459;DHT22;2752;49.992;8.422;2023-01-29T11:09:43;2.40;1.00
5459;DHT22;2752;49.992;8.422;2023-01-29T11:12:14;2.40;1.00
5459;DHT22;2752;49.992;8.422;2023-01-29T11:14:44;2.50;1.00
5459;DHT22;2752;49.992;8.422;2023-01-29T11:17:15;2.60;1.00
5459;DHT22;2752;49.992;8.422;2023-01-29T11:19:43;2.60;1.00
5459;DHT22;2752;49.992;8.422;2023-01-29T11:22:13;2.70;1.00
5459;DHT22;2752;49.992;8.422;2023-01-29T11:24:41;2.70;1.00
5459;DHT22;2752;49.992;8.422;2023-01-29T11:27:20;2.70;1.00
5459;DHT22;2752;49.992;8.422;2023-01-29T11:29:50;2.70;1.00
5459;DHT22;2752;49.992;8.422;2023-01-29T11:32:25;2.60;1.00
5459;DHT22;2752;49.992;8.422;2023-01-29T11:34:58;2.50;1.00
5459;DHT22;2752;49.992;8.422;2023-01-29T11:37:32;2.50;1.00
5459;DHT22;2752;49.992;8.422;2023-01-29T11:40:00;2.40;1.00
5459;DHT22;2752;49.992;8.422;2023-01-29T11:42:30;2.50;1.00
5459;DHT22;2752;49.992;8.422;2023-01-29T11:44:58;2.60;1.00
5459;DHT22;2752;49.992;8.422;2023-01-29T11:47:27;2.70;1.00
5459;DHT22;2752;49.992;8.422;2023-01-29T11:49:55;2.70;1.00
5459;DHT22;2752;49.992;8.422;2023-01-29T11:52:23;2.70;1.00
5459;DHT22;2752;49.992;8.422;2023-01-29T11:54:53;2.80;1.00
5459;DHT22;2752;49.992;8.422;2023-01-29T11:57:26;3.00;1.00
5459;DHT22;2752;49.992;8.422;2023-01-29T11:59:56;3.20;1.00
5459;DHT22;2752;49.992;8.422;2023-01-29T12:02:33;3.10;1.00
5459;DHT22;2752;49.992;8.422;2023-01-29T12:05:05;3.00;1.00
5459;DHT22;2752;49.992;8.422;2023-01-29T12:07:32;3.00;1.00
5459;DHT22;2752;49.992;8.422;2023-01-29T12:10:00;3.10;1.00
5459;DHT22;2752;49.992;8.422;2023-01-29T12:12:36;2.90;1.00
5459;DHT22;2752;49.992;8.422;2023-01-29T12:15:18;2.70;1.00
5459;DHT22;2752;49.992;8.422;2023-01-29T12:17:53;2.60;1.00
5459;DHT22;2752;49.992;8.422;2023-01-29T12:20:26;2.50;1.00
5459;DHT22;2752;49.992;8.422;2023-01-29T12:23:00;2.50;1.00
5459;DHT22;2752;49.992;8.422;2023-01-29T12:25:37;2.50;1.00
5459;DHT22;2752;49.992;8.422;2023-01-29T12:28:14;2.50;1.00
5459;DHT22;2752;49.992;8.422;2023-01-29T12:30:59;2.50;1.00
5459;DHT22;2752;49.992;8.422;2023-01-29T12:33:37;2.50;1.00
5459;DHT22;2752;49.992;8.422;2023-01-29T12:36:12;2.40;1.00
5459;DHT22;2752;49.992;8.422;2023-01-29T12:38:39;2.30;1.00
5459;DHT22;2752;49.992;8.422;2023-01-29T12:41:20;2.30;1.00
5459;DHT22;2752;49.992;8.422;2023-01-29T12:43:53;2.30;1.00
5459;DHT22;2752;49.992;8.422;2023-01-29T12:46:22;2.30;1.00
5459;DHT22;2752;49.992;8.422;2023-01-29T12:48:52;2.30;1.00
5459;DHT22;2752;49.992;8.422;2023-01-29T12:51:22;2.20;1.00
5459;DHT22;2752;49.992;8.422;2023-01-29T12:53:51;2.30;1.00
5459;DHT22;2752;49.992;8.422;2023-01-29T12:56:25;2.30;1.00
5459;DHT22;2752;49.992;8.422;2023-01-29T12:58:58;2.30;1.00
5459;DHT22;2752;49.992;8.422;2023-01-29T13:01:28;2.40;1.00
5459;DHT22;2752;49.992;8.422;2023-01-29T13:04:00;2.30;1.00
5459;DHT22;2752;49.992;8.422;2023-01-29T13:06:30;2.20;1.00
5459;DHT22;2752;49.992;8.422;2023-01-29T13:09:00;2.10;1.00
5459;DHT22;2752;49.992;8.422;2023-01-29T13:11:33;2.30;1.00
5459;DHT22;2752;49.992;8.422;2023-01-29T13:14:05;2.30;1.00
5459;DHT22;2752;49.992;8.422;2023-01-29T13:16:37;2.30;1.00
5459;DHT22;2752;49.992;8.422;2023-01-29T13:19:20;2.30;1.00
5459;DHT22;2752;49.992;8.422;2023-01-29T13:21:49;2.10;1.00
5459;DHT22;2752;49.992;8.422;2023-01-29T13:24:20;2.10;1.00
5459;DHT22;2752;49.992;8.422;2023-01-29T13:26:48;2.10;1.00
5459;DHT22;2752;49.992;8.422;2023-01-29T13:29:24;2.00;1.00
5459;DHT22;2752;49.992;8.422;2023-01-29T13:31:52;2.10;1.00
5459;DHT22;2752;49.992;8.422;2023-01-29T13:34:22;2.20;1.00
5459;DHT22;2752;49.992;8.422;2023-01-29T13:36:51;2.30;1.00
5459;DHT22;2752;49.992;8.422;2023-01-29T13:39:23;2.40;1.00
5459;DHT22;2752;49.992;8.422;2023-01-29T13:41:51;2.40;1.00
5459;DHT22;2752;49.992;8.422;2023-01-29T13:44:23;2.50;1.00
5459;DHT22;2752;49.992;8.422;2023-01-29T13:46:56;2.90;1.00
5459;DHT22;2752;49.992;8.422;2023-01-29T13:49:28;2.60;1.00
5459;DHT22;2752;49.992;8.422;2023-01-29T13:51:56;2.70;1.00
5459;DHT22;2752;49.992;8.422;2023-01-29T13:54:24;2.80;1.00
5459;DHT22;2752;49.992;8.422;2023-01-29T13:56:57;3.00;1.00
5459;DHT22;2752;49.992;8.422;2023-01-29T13:59:48;2.90;1.00
5459;DHT22;2752;49.992;8.422;2023-01-29T14:02:20;3.00;1.00
5459;DHT22;2752;49.992;8.422;2023-01-29T14:04:47;3.10;1.00
5459;DHT22;2752;49.992;8.422;2023-01-29T14:07:48;3.10;1.00
5459;DHT22;2752;49.992;8.422;2023-01-29T14:10:18;3.20;1.00
5459;DHT22;2752;49.992;8.422;2023-01-29T14:12:46;3.20;1.00
5459;DHT22;2752;49.992;8.422;2023-01-29T14:15:32;3.10;1.00
5459;DHT22;2752;49.992;8.422;2023-01-29T14:18:03;3.10;1.00
5459;DHT22;2752;49.992;8.422;2023-01-29T14:20:34;3.20;1.00
5459;DHT22;2752;49.992;8.422;2023-01-29T14:23:03;3.10;1.00
5459;DHT22;2752;49.992;8.422;2023-01-29T14:25:31;3.10;1.00
5459;DHT22;2752;49.992;8.422;2023-01-29T14:28:00;3.10;1.00
5459;DHT22;2752;49.992;8.422;2023-01-29T14:30:30;3.00;1.00
5459;DHT22;2752;49.992;8.422;2023-01-29T14:32:59;3.20;1.00
5459;DHT22;2752;49.992;8.422;2023-01-29T14:35:29;3.20;1.00
5459;DHT22;2752;49.992;8.422;2023-01-29T14:38:00;3.20;1.00
5459;DHT22;2752;49.992;8.422;2023-01-29T14:40:29;3.30;1.00
5459;DHT22;2752;49.992;8.422;2023-01-29T14:42:59;3.30;1.00
5459;DHT22;2752;49.992;8.422;2023-01-29T14:45:28;3.40;1.00
5459;DHT22;2752;49.992;8.422;2023-01-29T14:51:05;3.20;1.00
5459;DHT22;2752;49.992;8.422;2023-01-29T14:53:44;3.00;1.00
5459;DHT22;2752;49.992;8.422;2023-01-29T14:56:14;3.20;1.00
5459;DHT22;2752;49.992;8.422;2023-01-29T14:58:45;3.00;1.00
5459;DHT22;2752;49.992;8.422;2023-01-29T15:01:20;3.00;1.00
5459;DHT22;2752;49.992;8.422;2023-01-29T15:03:49;2.90;1.00
5459;DHT22;2752;49.992;8.422;2023-01-29T15:06:31;3.00;1.00
5459;DHT22;2752;49.992;8.422;2023-01-29T15:09:04;3.10;1.00
5459;DHT22;2752;49.992;8.422;2023-01-29T15:11:43;3.00;1.00
5459;DHT22;2752;49.992;8.422;2023-01-29T15:14:16;3.00;1.00
5459;DHT22;2752;49.992;8.422;2023-01-29T15:16:55;3.00;1.00
5459;DHT22;2752;49.992;8.422;2023-01-29T15:19:27;2.90;1.00
5459;DHT22;2752;49.992;8.422;2023-01-29T15:22:07;2.90;1.00
5459;DHT22;2752;49.992;8.422;2023-01-29T15:24:35;2.90;1.00
5459;DHT22;2752;49.992;8.422;2023-01-29T15:27:02;2.90;1.00
5459;DHT22;2752;49.992;8.422;2023-01-29T15:29:29;2.80;1.00
5459;DHT22;2752;49.992;8.422;2023-01-29T15:31:56;2.70;1.00
5459;DHT22;2752;49.992;8.422;2023-01-29T15:34:24;2.60;1.00
5459;DHT22;2752;49.992;8.422;2023-01-29T15:36:51;2.70;1.00
5459;DHT22;2752;49.992;8.422;2023-01-29T15:39:20;2.60;1.00
5459;DHT22;2752;49.992;8.422;2023-01-29T15:41:48;2.50;1.00
5459;DHT22;2752;49.992;8.422;2023-01-29T15:44:19;2.30;1.00
5459;DHT22;2752;49.992;8.422;2023-01-29T15:46:48;2.30;1.00
5459;DHT22;2752;49.992;8.422;2023-01-29T15:49:20;2.20;1.00
5459;DHT22;2752;49.992;8.422;2023-01-29T15:51:54;2.20;1.00
5459;DHT22;2752;49.992;8.422;2023-01-29T15:54:24;2.00;1.00
5459;DHT22;2752;49.992;8.422;2023-01-29T15:56:55;2.10;1.00
5459;DHT22;2752;49.992;8.422;2023-01-29T15:59:25;2.00;1.00
5459;DHT22;2752;49.992;8.422;2023-01-29T16:01:52;1.90;1.00
5459;DHT22;2752;49.992;8.422;2023-01-29T16:04:22;2.10;1.00
5459;DHT22;2752;49.992;8.422;2023-01-29T16:06:52;1.70;1.00
5459;DHT22;2752;49.992;8.422;2023-01-29T16:09:22;1.60;1.00
5459;DHT22;2752;49.992;8.422;2023-01-29T16:11:50;1.50;1.00
5459;DHT22;2752;49.992;8.422;2023-01-29T16:14:21;1.40;1.00
5459;DHT22;2752;49.992;8.422;2023-01-29T16:16:50;1.40;1.00
5459;DHT22;2752;49.992;8.422;2023-01-29T16:19:21;1.30;1.00
5459;DHT22;2752;49.992;8.422;2023-01-29T16:21:53;1.30;1.00
5459;DHT22;2752;49.992;8.422;2023-01-29T16:24:23;1.20;1.00
5459;DHT22;2752;49.992;8.422;2023-01-29T16:26:51;1.10;1.00
5459;DHT22;2752;49.992;8.422;2023-01-29T16:29:27;1.10;1.00
5459;DHT22;2752;49.992;8.422;2023-01-29T16:31:55;1.10;1.00
5459;DHT22;2752;49.992;8.422;2023-01-29T16:34:28;1.00;1.00
5459;DHT22;2752;49.992;8.422;2023-01-29T16:36:56;1.00;1.00
5459;DHT22;2752;49.992;8.422;2023-01-29T16:39:27;1.20;1.00
5459;DHT22;2752;49.992;8.422;2023-01-29T16:42:24;0.90;1.00
5459;DHT22;2752;49.992;8.422;2023-01-29T16:44:54;0.90;1.00
5459;DHT22;2752;49.992;8.422;2023-01-29T16:47:27;0.80;1.00
5459;DHT22;2752;49.992;8.422;2023-01-29T16:49:54;0.70;1.00
5459;DHT22;2752;49.992;8.422;2023-01-29T16:52:24;0.70;1.00
5459;DHT22;2752;49.992;8.422;2023-01-29T16:54:59;0.60;1.00
5459;DHT22;2752;49.992;8.422;2023-01-29T16:57:28;0.60;1.00
5459;DHT22;2752;49.992;8.422;2023-01-29T16:59:58;0.50;1.00
5459;DHT22;2752;49.992;8.422;2023-01-29T17:02:27;0.40;1.00
5459;DHT22;2752;49.992;8.422;2023-01-29T17:05:00;0.40;1.00
5459;DHT22;2752;49.992;8.422;2023-01-29T17:07:29;0.40;1.00